Time;durP1;ratioP1;P1;durP2;ratioP2;P2;SDS_P1;SDS_P2;PMS_P1;PMS_P2;Temp;Humidity;BMP_temperature;BMP_pressure;BME280_temperature;BME280_humidity;BME280_pressure;Samples;Min_cycle;Max_cycle;Signal;HPM_P1;HPM_P2
2021/10/17 00:01:24;;;;;;;20.08;15.35;;;;;;;;;;5074242;28;20078;-59
2021/10/17 00:04:02;;;;;;;19.52;15.82;;;;;;;;;;5078401;28;20051;-58
2021/10/17 00:06:54;;;;;;;17.20;15.00;;;;;;;;;;5078419;28;20206;-59
2021/10/17 00:09:39;;;;;;;17.63;14.90;;;;;;;;;;5059762;28;20037;-58
2021/10/17 00:12:37;;;;;;;22.05;18.50;;;;;;;;;;5078408;28;20020;-58
2021/10/17 00:18:40;;;;;;;24.35;19.70;;;;;;;;;;4995319;28;20069;-58
2021/10/17 00:24:08;;;;;;;21.13;17.48;;;;;;;;;;5077581;28;20424;-58
2021/10/17 00:27:03;;;;;;;21.92;17.48;;;;;;;;;;5077385;28;20036;-59
2021/10/17 00:29:38;;;;;;;19.52;16.95;;;;;;;;;;5078595;28;20523;-59
2021/10/17 00:32:45;;;;;;;22.98;17.20;;;;;;;;;;5077837;28;20020;-58
2021/10/17 00:38:13;;;;;;;22.73;15.65;;;;;;;;;;5075495;28;20044;-58
2021/10/17 00:43:54;;;;;;;21.25;17.90;;;;;;;;;;5075428;28;20043;-59
2021/10/17 00:46:37;;;;;;;20.83;16.67;;;;;;;;;;5077788;28;20093;-58
2021/10/17 00:49:09;;;;;;;21.45;16.48;;;;;;;;;;5077908;28;20084;-57
2021/10/17 00:51:47;;;;;;;25.02;16.58;;;;;;;;;;5080671;28;20082;-57
2021/10/17 00:54:23;;;;;;;25.05;17.33;;;;;;;;;;5081514;28;20040;-57
2021/10/17 00:57:02;;;;;;;22.65;17.13;;;;;;;;;;5081483;28;20036;-58
2021/10/17 00:59:34;;;;;;;21.27;16.15;;;;;;;;;;5082202;28;20687;-57
2021/10/17 01:02:12;;;;;;;19.73;16.27;;;;;;;;;;5081458;28;20032;-57
2021/10/17 01:05:25;;;;;;;18.48;15.40;;;;;;;;;;5082078;28;20270;-57
2021/10/17 01:08:01;;;;;;;23.98;14.73;;;;;;;;;;5070755;28;20505;-57
2021/10/17 01:13:25;;;;;;;14.00;12.50;;;;;;;;;;5059302;28;20067;-58
2021/10/17 01:16:00;;;;;;;15.48;13.57;;;;;;;;;;5080025;28;20048;-57
2021/10/17 01:18:58;;;;;;;21.33;14.45;;;;;;;;;;5081198;28;20090;-57
2021/10/17 01:21:37;;;;;;;19.30;14.25;;;;;;;;;;5081948;28;20034;-57
2021/10/17 01:24:17;;;;;;;19.30;16.52;;;;;;;;;;5082117;28;20020;-58
2021/10/17 01:26:52;;;;;;;20.30;15.70;;;;;;;;;;5096594;28;20060;-57
2021/10/17 01:32:23;;;;;;;22.02;15.07;;;;;;;;;;5072032;28;20469;-57
2021/10/17 01:35:15;;;;;;;16.23;14.10;;;;;;;;;;5081744;28;20044;-57
2021/10/17 01:40:59;;;;;;;16.85;14.70;;;;;;;;;;4999231;28;20030;-57
2021/10/17 01:47:27;;;;;;;21.73;16.08;;;;;;;;;;4958520;29;20047;-58
2021/10/17 01:53:11;;;;;;;18.30;15.60;;;;;;;;;;4948776;28;20031;-58
2021/10/17 01:55:49;;;;;;;19.02;16.40;;;;;;;;;;4960953;29;20079;-57
2021/10/17 01:58:39;;;;;;;21.60;17.27;;;;;;;;;;4960034;29;20075;-57
2021/10/17 02:01:09;;;;;;;19.05;14.93;;;;;;;;;;4960639;28;20106;-57
2021/10/17 02:06:51;;;;;;;18.10;15.07;;;;;;;;;;5042421;28;20379;-57
2021/10/17 02:09:23;;;;;;;19.98;14.52;;;;;;;;;;4959621;28;20043;-57
2021/10/17 02:12:21;;;;;;;17.38;13.30;;;;;;;;;;5079861;28;20110;-57
2021/10/17 02:15:25;;;;;;;15.95;14.07;;;;;;;;;;5080021;28;20220;-58
2021/10/17 02:18:16;;;;;;;16.75;13.82;;;;;;;;;;4958192;28;20046;-58
2021/10/17 02:21:11;;;;;;;17.77;14.55;;;;;;;;;;5079014;28;20432;-58
2021/10/17 02:24:11;;;;;;;16.63;14.85;;;;;;;;;;5078009;28;20493;-57
2021/10/17 02:26:41;;;;;;;18.40;14.80;;;;;;;;;;5049866;28;20096;-58
2021/10/17 02:29:13;;;;;;;17.33;14.13;;;;;;;;;;5080194;28;20048;-57
2021/10/17 02:31:58;;;;;;;;;;;;;;;;;;;;;
2021/10/17 02:34:32;;;;;;;16.50;14.75;;;;;;;;;;5080341;28;20522;-57
2021/10/17 02:37:18;;;;;;;19.65;17.63;;;;;;;;;;5079361;28;20090;-58
2021/10/17 02:39:53;;;;;;;20.48;16.15;;;;;;;;;;5080359;28;20042;-57
2021/10/17 02:42:30;;;;;;;20.30;15.57;;;;;;;;;;5080287;28;20028;-57
2021/10/17 02:45:32;;;;;;;21.17;16.75;;;;;;;;;;5079562;28;20036;-58
2021/10/17 02:51:22;;;;;;;16.67;14.30;;;;;;;;;;5079658;28;20094;-57
2021/10/17 02:54:05;;;;;;;15.77;14.15;;;;;;;;;;4976423;28;20048;-58
2021/10/17 02:56:52;;;;;;;15.98;14.45;;;;;;;;;;5079395;28;20044;-58
2021/10/17 03:02:08;;;;;;;16.45;13.90;;;;;;;;;;5042997;28;20033;-58
2021/10/17 03:07:55;;;;;;;17.52;14.43;;;;;;;;;;5079482;28;20032;-58
2021/10/17 03:10:47;;;;;;;17.50;14.57;;;;;;;;;;5080638;28;20028;-58
2021/10/17 03:13:22;;;;;;;16.92;15.15;;;;;;;;;;5080138;28;20096;-58
2021/10/17 03:16:00;;;;;;;16.00;13.95;;;;;;;;;;5021509;28;20041;-58
2021/10/17 03:18:39;;;;;;;;;;;;;;;;;;;;;
2021/10/17 03:21:23;;;;;;;18.25;14.57;;;;;;;;;;5060289;28;20092;-57
2021/10/17 03:26:58;;;;;;;19.02;15.73;;;;;;;;;;4997988;28;20041;-58
2021/10/17 03:29:52;;;;;;;17.38;15.50;;;;;;;;;;5079600;28;20028;-57
2021/10/17 03:32:27;;;;;;;18.58;14.35;;;;;;;;;;5056455;28;20035;-57
2021/10/17 03:35:12;;;;;;;16.23;14.52;;;;;;;;;;5073491;28;20049;-57
2021/10/17 03:38:17;;;;;;;15.90;13.02;;;;;;;;;;5072971;28;20085;-58
2021/10/17 03:41:17;;;;;;;16.45;13.32;;;;;;;;;;5067227;28;20481;-58
2021/10/17 03:44:06;;;;;;;;;;;;;;;;;;;;;
2021/10/17 03:46:56;;;;;;;15.43;13.80;;;;;;;;;;5069451;28;20040;-57
2021/10/17 03:52:46;;;;;;;15.02;13.52;;;;;;;;;;5072616;28;20496;-56
2021/10/17 03:55:25;;;;;;;16.67;13.35;;;;;;;;;;5088693;28;20712;-57
2021/10/17 03:58:09;;;;;;;17.30;13.23;;;;;;;;;;5087567;28;20492;-57
2021/10/17 04:06:37;;;;;;;16.77;14.82;;;;;;;;;;5061214;28;20431;-57
2021/10/17 04:09:28;;;;;;;16.63;14.23;;;;;;;;;;5054337;28;20024;-57
2021/10/17 04:12:24;;;;;;;;;;;;;;;;;;;;;
2021/10/17 04:18:22;;;;;;;14.93;13.05;;;;;;;;;;5057778;28;20090;-57
2021/10/17 04:27:07;;;;;;;;;;;;;;;;;;;;;
2021/10/17 04:29:56;;;;;;;14.30;12.70;;;;;;;;;;5013164;28;20688;-57
2021/10/17 04:32:58;;;;;;;14.07;12.13;;;;;;;;;;5071415;28;20060;-58
2021/10/17 04:38:39;;;;;;;12.98;11.60;;;;;;;;;;4995403;28;20216;-57
2021/10/17 04:41:13;;;;;;;16.00;11.95;;;;;;;;;;5006230;28;20049;-57
2021/10/17 04:43:42;;;;;;;14.00;12.20;;;;;;;;;;5010471;28;20037;-55
2021/10/17 04:46:33;;;;;;;13.48;11.38;;;;;;;;;;5010397;28;20110;-57
2021/10/17 04:49:17;;;;;;;14.95;12.10;;;;;;;;;;4997953;28;20438;-57
2021/10/17 04:52:04;;;;;;;16.85;12.45;;;;;;;;;;4994818;28;20116;-57
2021/10/17 04:55:14;;;;;;;17.98;13.45;;;;;;;;;;5072464;28;20031;-57
2021/10/17 04:57:50;;;;;;;16.08;12.40;;;;;;;;;;5072085;28;20032;-58
2021/10/17 05:00:31;;;;;;;16.42;13.55;;;;;;;;;;5072512;28;20158;-57
2021/10/17 05:03:35;;;;;;;14.05;11.80;;;;;;;;;;5071661;28;20054;-57
2021/10/17 05:06:20;;;;;;;18.65;14.45;;;;;;;;;;5063791;28;20092;-57
2021/10/17 05:09:21;;;;;;;13.68;12.27;;;;;;;;;;5071891;28;20029;-57
2021/10/17 05:12:06;;;;;;;;;;;;;;;;;;;;;
2021/10/17 05:15:00;;;;;;;15.73;12.57;;;;;;;;;;5052231;28;20107;-57
2021/10/17 05:23:35;;;;;;;15.23;12.52;;;;;;;;;;5061086;28;20039;-57
2021/10/17 05:26:35;;;;;;;;;;;;;;;;;;;;;
2021/10/17 05:29:18;;;;;;;;;;;;;;;;;;;;;
2021/10/17 05:32:39;;;;;;;;;;;;;;;;;;;;;
2021/10/17 05:34:49;;;;;;;14.95;13.10;;;;;;;;;;5055215;28;20449;-57
2021/10/17 05:40:16;;;;;;;12.50;11.27;;;;;;;;;;5075276;28;20059;-57
2021/10/17 05:43:01;;;;;;;14.27;12.30;;;;;;;;;;5075878;28;20028;-57
2021/10/17 05:45:36;;;;;;;14.57;12.02;;;;;;;;;;5075702;28;20021;-57
2021/10/17 05:48:41;;;;;;;14.90;12.65;;;;;;;;;;5057039;28;20028;-57
2021/10/17 05:51:26;;;;;;;14.27;12.77;;;;;;;;;;5009737;28;20368;-57
2021/10/17 05:56:54;;;;;;;13.82;12.43;;;;;;;;;;5041389;28;20033;-58
2021/10/17 05:59:58;;;;;;;15.82;12.02;;;;;;;;;;5057430;28;20095;-57
2021/10/17 06:02:52;;;;;;;14.90;12.48;;;;;;;;;;5075014;28;20036;-58
2021/10/17 06:05:21;;;;;;;15.02;13.48;;;;;;;;;;5057310;28;20044;-57
2021/10/17 06:08:08;;;;;;;16.85;12.98;;;;;;;;;;5074492;28;20071;-57
2021/10/17 06:10:43;;;;;;;13.57;12.18;;;;;;;;;;5056847;28;20584;-57
2021/10/17 06:13:21;;;;;;;16.48;12.75;;;;;;;;;;5075000;28;20040;-57
2021/10/17 06:16:13;;;;;;;;;;;;;;;;;;;;;
2021/10/17 06:18:50;;;;;;;14.98;13.18;;;;;;;;;;5070507;28;20047;-57
2021/10/17 06:21:25;;;;;;;16.83;14.63;;;;;;;;;;5074510;28;20543;-57
2021/10/17 06:24:22;;;;;;;19.35;14.57;;;;;;;;;;5074183;28;20080;-58
2021/10/17 06:30:19;;;;;;;16.00;14.25;;;;;;;;;;5071494;28;20036;-57
2021/10/17 06:32:49;;;;;;;19.00;15.07;;;;;;;;;;5056161;28;20063;-57
2021/10/17 06:35:27;;;;;;;18.70;16.27;;;;;;;;;;5056182;28;20033;-57
2021/10/17 06:38:18;;;;;;;17.17;14.45;;;;;;;;;;5073662;28;20044;-57
2021/10/17 06:40:47;;;;;;;16.33;13.57;;;;;;;;;;5055781;28;20557;-56
2021/10/17 06:43:30;;;;;;;;;;;;;;;;;;;;;
2021/10/17 06:46:03;;;;;;;15.75;14.07;;;;;;;;;;5071341;28;20041;-58
2021/10/17 06:48:58;;;;;;;16.30;14.55;;;;;;;;;;5073383;28;20035;-57
2021/10/17 06:51:36;;;;;;;15.82;13.93;;;;;;;;;;5032069;28;20382;-57
2021/10/17 06:54:14;;;;;;;15.93;13.93;;;;;;;;;;5051390;28;20052;-56
2021/10/17 06:59:53;;;;;;;19.20;15.48;;;;;;;;;;5073025;28;20124;-58
2021/10/17 07:03:02;;;;;;;;;;;;;;;;;;;;;
2021/10/17 07:05:21;;;;;;;20.10;14.65;;;;;;;;;;5069006;28;20354;-58
2021/10/17 07:08:35;;;;;;;17.73;15.18;;;;;;;;;;5072542;28;20449;-58
2021/10/17 07:19:46;;;;;;;19.73;17.08;;;;;;;;;;5038378;28;20040;-58
2021/10/17 07:22:39;;;;;;;17.95;16.10;;;;;;;;;;5055224;28;20032;-58
2021/10/17 07:25:35;;;;;;;;;;;;;;;;;;;;;
2021/10/17 07:31:20;;;;;;;20.45;15.80;;;;;;;;;;5044735;28;20045;-59
2021/10/17 07:34:23;;;;;;;18.95;16.15;;;;;;;;;;5010121;28;20033;-58
2021/10/17 07:37:13;;;;;;;21.15;15.18;;;;;;;;;;5010256;28;20033;-58
2021/10/17 07:39:41;;;;;;;21.40;15.23;;;;;;;;;;5013467;28;20025;-58
2021/10/17 07:42:09;;;;;;;20.92;15.38;;;;;;;;;;5030843;28;20025;-60
2021/10/17 07:44:38;;;;;;;20.10;15.73;;;;;;;;;;5020301;28;20377;-58
2021/10/17 07:47:43;;;;;;;20.23;16.63;;;;;;;;;;5052654;28;20017;-58
2021/10/17 07:50:46;;;;;;;18.63;16.63;;;;;;;;;;4993612;28;20450;-58
2021/10/17 07:53:15;;;;;;;18.70;16.70;;;;;;;;;;5010243;28;20037;-59
2021/10/17 07:55:54;;;;;;;23.30;17.63;;;;;;;;;;5056773;28;20040;-58
2021/10/17 07:58:42;;;;;;;21.63;17.67;;;;;;;;;;5072589;28;20039;-58
2021/10/17 08:01:23;;;;;;;21.50;18.05;;;;;;;;;;5061002;28;20044;-58
2021/10/17 08:07:10;;;;;;;22.63;19.42;;;;;;;;;;5071941;28;20040;-59
2021/10/17 08:09:46;;;;;;;26.55;19.02;;;;;;;;;;5072394;28;20033;-59
2021/10/17 08:12:31;;;;;;;;;;;;;;;;;;;;;
2021/10/17 08:15:30;;;;;;;21.02;18.25;;;;;;;;;;5072545;28;20522;-59
2021/10/17 08:18:19;;;;;;;20.83;18.67;;;;;;;;;;5046307;28;20051;-59
2021/10/17 08:21:43;;;;;;;21.05;17.92;;;;;;;;;;5066633;28;20489;-59
2021/10/17 08:27:11;;;;;;;21.85;17.20;;;;;;;;;;5048064;28;20116;-59
2021/10/17 08:30:09;;;;;;;24.02;20.58;;;;;;;;;;5071271;28;20025;-60
2021/10/17 08:38:42;;;;;;;24.23;19.23;;;;;;;;;;5029041;28;19929;-60
2021/10/17 08:41:35;;;;;;;21.02;16.95;;;;;;;;;;5053208;28;20560;-59
2021/10/17 08:47:11;;;;;;;23.25;19.77;;;;;;;;;;5057461;28;20029;-59
2021/10/17 08:50:02;;;;;;;21.15;18.33;;;;;;;;;;5071450;28;20123;-59
2021/10/17 08:58:10;;;;;;;26.85;20.25;;;;;;;;;;5071632;28;20481;-58
2021/10/17 09:04:00;;;;;;;23.92;19.90;;;;;;;;;;5071667;28;20040;-58
2021/10/17 09:06:46;;;;;;;;;;;;;;;;;;;;;
2021/10/17 09:09:39;;;;;;;;;;;;;;;;;;;;;
2021/10/17 09:12:31;;;;;;;19.15;16.98;;;;;;;;;;5069172;28;20040;-58
2021/10/17 09:15:16;;;;;;;21.30;18.17;;;;;;;;;;5073983;28;20465;-59
2021/10/17 09:18:07;;;;;;;23.80;18.95;;;;;;;;;;5070666;28;20036;-58
2021/10/17 09:21:01;;;;;;;27.02;19.40;;;;;;;;;;5073544;28;20370;-58
2021/10/17 09:23:41;;;;;;;27.58;21.83;;;;;;;;;;5056323;28;20134;-58
2021/10/17 09:26:18;;;;;;;23.27;19.05;;;;;;;;;;5056616;28;20507;-59
2021/10/17 09:32:13;;;;;;;24.40;19.85;;;;;;;;;;5040844;28;20032;-58
2021/10/17 09:35:06;;;;;;;26.15;18.25;;;;;;;;;;5074029;28;20024;-59
2021/10/17 09:38:00;;;;;;;25.10;20.63;;;;;;;;;;5076590;28;20020;-59
2021/10/17 09:40:43;;;;;;;;;;;;;;;;;;;;;
2021/10/17 09:43:29;;;;;;;25.15;20.27;;;;;;;;;;5076170;28;20042;-58
2021/10/17 09:46:11;;;;;;;25.05;20.48;;;;;;;;;;5072422;28;20028;-59
2021/10/17 09:48:49;;;;;;;21.20;18.88;;;;;;;;;;5058892;28;20029;-59
2021/10/17 09:51:31;;;;;;;23.55;18.13;;;;;;;;;;5062235;28;20611;-59
2021/10/17 09:54:41;;;;;;;24.45;18.35;;;;;;;;;;5071763;28;20028;-58
2021/10/17 09:57:32;;;;;;;23.50;19.73;;;;;;;;;;5052723;28;20104;-58
2021/10/17 10:00:24;;;;;;;23.63;19.80;;;;;;;;;;5065681;28;20048;-58
2021/10/17 10:03:01;;;;;;;23.35;18.17;;;;;;;;;;5072630;28;20040;-59
2021/10/17 10:05:48;;;;;;;23.02;19.35;;;;;;;;;;5084439;28;20024;-57
2021/10/17 10:11:51;;;;;;;27.08;19.73;;;;;;;;;;5061071;28;20039;-56
2021/10/17 10:14:28;;;;;;;20.42;17.77;;;;;;;;;;5077608;28;20093;-60
2021/10/17 10:17:10;;;;;;;22.35;17.45;;;;;;;;;;5079868;28;20020;-58
2021/10/17 10:19:55;;;;;;;23.05;18.35;;;;;;;;;;5078566;28;20032;-59
2021/10/17 10:22:49;;;;;;;;;;;;;;;;;;;;;
2021/10/17 10:25:22;;;;;;;18.55;16.20;;;;;;;;;;5073372;28;20044;-59
2021/10/17 10:28:28;;;;;;;18.95;16.92;;;;;;;;;;5078368;28;20028;-60
2021/10/17 10:30:56;;;;;;;21.42;16.92;;;;;;;;;;5077749;28;20029;-59
2021/10/17 10:33:40;;;;;;;16.27;14.23;;;;;;;;;;5079154;28;20833;-57
2021/10/17 10:36:38;;;;;;;21.27;15.10;;;;;;;;;;5079123;28;20091;-58
2021/10/17 10:39:13;;;;;;;18.60;15.57;;;;;;;;;;5078502;28;20053;-58
2021/10/17 10:45:02;;;;;;;19.15;15.63;;;;;;;;;;5078679;28;20055;-58
2021/10/17 10:47:42;;;;;;;16.88;14.15;;;;;;;;;;5077499;28;20097;-58
2021/10/17 10:50:35;;;;;;;19.55;16.55;;;;;;;;;;5061387;28;20492;-58
2021/10/17 10:53:37;;;;;;;21.50;16.50;;;;;;;;;;5076502;28;20089;-58
2021/10/17 10:59:55;;;;;;;;;;;;;;;;;;;;;
2021/10/17 11:02:45;;;;;;;17.83;15.02;;;;;;;;;;5015525;28;20055;-58
2021/10/17 11:05:35;;;;;;;16.77;14.55;;;;;;;;;;4974459;28;20045;-59
2021/10/17 11:08:30;;;;;;;17.77;15.05;;;;;;;;;;5006606;28;20161;-59
2021/10/17 11:11:13;;;;;;;;;;;;;;;;;;;;;
2021/10/17 11:13:49;;;;;;;17.50;15.73;;;;;;;;;;5043230;28;20417;-59
2021/10/17 11:16:32;;;;;;;18.17;14.32;;;;;;;;;;5078199;28;21246;-58
2021/10/17 11:19:09;;;;;;;19.38;15.05;;;;;;;;;;5073828;28;20049;-58
2021/10/17 11:21:44;;;;;;;23.05;16.38;;;;;;;;;;5078123;28;22146;-58
2021/10/17 11:24:52;;;;;;;16.20;14.48;;;;;;;;;;5062403;28;20542;-58
2021/10/17 11:27:22;;;;;;;18.35;15.50;;;;;;;;;;5075162;28;20047;-58
2021/10/17 11:30:14;;;;;;;19.17;14.68;;;;;;;;;;5091281;28;20039;-58
2021/10/17 11:33:04;;;;;;;18.90;16.95;;;;;;;;;;5057820;28;20127;-58
2021/10/17 11:35:43;;;;;;;22.02;17.88;;;;;;;;;;5049878;28;20512;-58
2021/10/17 11:41:42;;;;;;;23.60;17.17;;;;;;;;;;5074464;28;20063;-58
2021/10/17 11:47:40;;;;;;;25.88;17.52;;;;;;;;;;4994411;28;20024;-58
2021/10/17 11:50:30;;;;;;;19.63;15.68;;;;;;;;;;5088152;28;20032;-58
2021/10/17 11:53:28;;;;;;;19.08;15.57;;;;;;;;;;5077922;28;20057;-58
2021/10/17 11:56:22;;;;;;;;;;;;;;;;;;;;;
2021/10/17 11:59:15;;;;;;;17.73;15.35;;;;;;;;;;5072583;28;20595;-59
2021/10/17 12:01:59;;;;;;;21.58;15.07;;;;;;;;;;5058798;28;20025;-58
2021/10/17 12:04:50;;;;;;;21.85;15.57;;;;;;;;;;5077187;28;20032;-58
2021/10/17 12:07:36;;;;;;;17.90;15.07;;;;;;;;;;5077096;28;20033;-58
2021/10/17 12:10:06;;;;;;;18.90;15.07;;;;;;;;;;5082346;28;20398;-56
2021/10/17 12:12:52;;;;;;;22.45;16.33;;;;;;;;;;5078208;28;20073;-58
2021/10/17 12:15:44;;;;;;;17.63;14.45;;;;;;;;;;5060944;28;20533;-58
2021/10/17 12:18:27;;;;;;;19.23;14.45;;;;;;;;;;5076278;28;20093;-58
2021/10/17 12:21:23;;;;;;;19.73;14.95;;;;;;;;;;5058082;28;20120;-59
2021/10/17 12:24:00;;;;;;;16.08;14.02;;;;;;;;;;5077195;28;20032;-58
2021/10/17 12:26:36;;;;;;;17.80;15.00;;;;;;;;;;5079495;28;20107;-58
2021/10/17 12:32:39;;;;;;;20.17;15.05;;;;;;;;;;5071637;28;20032;-58
2021/10/17 12:35:36;;;;;;;;;;;;;;;;;;;;;
2021/10/17 12:38:29;;;;;;;19.73;14.15;;;;;;;;;;5028458;28;20061;-58
2021/10/17 12:41:11;;;;;;;16.55;14.35;;;;;;;;;;5029418;28;20121;-58
2021/10/17 12:43:42;;;;;;;21.27;15.20;;;;;;;;;;5011121;28;20133;-58
2021/10/17 12:52:54;;;;;;;18.60;15.27;;;;;;;;;;5081751;28;20393;-58
2021/10/17 12:55:47;;;;;;;17.52;15.63;;;;;;;;;;5091583;28;20106;-58
2021/10/17 12:58:35;;;;;;;;;;;;;;;;;;;;;
2021/10/17 13:01:18;;;;;;;18.27;13.70;;;;;;;;;;5060860;28;20358;-58
2021/10/17 13:07:24;;;;;;;17.77;14.60;;;;;;;;;;5051813;28;20036;-59
2021/10/17 13:10:01;;;;;;;;;;;;;;;;;;;;;
2021/10/17 13:12:48;;;;;;;23.50;18.42;;;;;;;;;;5079775;28;20417;-58
2021/10/17 13:15:39;;;;;;;21.55;14.65;;;;;;;;;;5074790;28;20107;-58
2021/10/17 13:21:06;;;;;;;23.42;17.00;;;;;;;;;;5075355;28;19917;-58
2021/10/17 13:23:43;;;;;;;20.08;15.88;;;;;;;;;;5080491;28;20032;-59
2021/10/17 13:26:13;;;;;;;22.00;15.95;;;;;;;;;;5062587;28;20029;-58
2021/10/17 13:29:12;;;;;;;24.83;18.40;;;;;;;;;;5079640;28;20056;-59
2021/10/17 13:31:38;;;;;;;18.58;15.70;;;;;;;;;;5073332;28;20309;-58
2021/10/17 13:34:54;;;;;;;21.10;16.10;;;;;;;;;;5079842;28;20442;-59
2021/10/17 13:37:27;;;;;;;20.17;16.25;;;;;;;;;;5053800;28;20044;-58
2021/10/17 13:40:21;;;;;;;23.83;17.50;;;;;;;;;;5079458;28;20485;-58
2021/10/17 13:43:14;;;;;;;18.73;16.63;;;;;;;;;;5058382;28;20392;-57
2021/10/17 13:48:42;;;;;;;23.03;16.50;;;;;;;;;;5070073;28;20052;-58
2021/10/17 13:51:41;;;;;;;20.92;15.45;;;;;;;;;;5061518;28;20312;-59
2021/10/17 13:54:17;;;;;;;;;;;;;;;;;;;;;
2021/10/17 14:00:26;;;;;;;21.08;16.65;;;;;;;;;;5051662;28;20109;-58
2021/10/17 14:03:08;;;;;;;;;;;;;;;;;;;;;
2021/10/17 14:05:58;;;;;;;18.73;15.40;;;;;;;;;;4986622;28;20067;-58
2021/10/17 14:08:33;;;;;;;21.35;15.07;;;;;;;;;;5083290;28;20518;-57
2021/10/17 14:11:26;;;;;;;19.73;15.95;;;;;;;;;;5039182;28;20543;-58
2021/10/17 14:14:22;;;;;;;20.77;15.25;;;;;;;;;;5074037;28;20032;-58
2021/10/17 14:19:57;;;;;;;20.40;15.32;;;;;;;;;;5077098;28;20063;-58
2021/10/17 14:22:46;;;;;;;21.08;16.92;;;;;;;;;;5081906;28;20034;-58
2021/10/17 14:25:27;;;;;;;18.42;15.02;;;;;;;;;;5088904;28;20054;-59
2021/10/17 14:34:12;;;;;;;21.85;15.52;;;;;;;;;;5061830;28;20045;-59
2021/10/17 14:36:58;;;;;;;19.83;15.95;;;;;;;;;;5088970;28;20028;-59
2021/10/17 14:39:31;;;;;;;17.33;15.40;;;;;;;;;;5056441;28;20045;-59
2021/10/17 14:42:17;;;;;;;;;;;;;;;;;;;;;
2021/10/17 14:45:01;;;;;;;23.02;15.50;;;;;;;;;;5074310;28;20088;-59
2021/10/17 14:47:51;;;;;;;21.70;15.50;;;;;;;;;;5070984;28;20554;-59
2021/10/17 14:50:41;;;;;;;22.92;16.10;;;;;;;;;;5056467;28;20058;-59
2021/10/17 14:53:39;;;;;;;;;;;;;;;;;;;;;
2021/10/17 14:56:15;;;;;;;24.30;16.30;;;;;;;;;;5075826;28;20112;-57
2021/10/17 14:58:55;;;;;;;20.65;15.68;;;;;;;;;;5081083;28;20040;-58
2021/10/17 15:01:36;;;;;;;20.27;15.32;;;;;;;;;;5080987;28;20028;-58
2021/10/17 15:04:31;;;;;;;23.58;15.25;;;;;;;;;;5062050;28;20101;-58
2021/10/17 15:07:20;;;;;;;26.88;18.15;;;;;;;;;;5077378;28;20052;-58
2021/10/17 15:10:11;;;;;;;26.75;18.08;;;;;;;;;;5080258;28;20032;-58
2021/10/17 15:12:54;;;;;;;;;;;;;;;;;;;;;
2021/10/17 15:15:59;;;;;;;22.08;15.48;;;;;;;;;;5078086;28;19986;-57
2021/10/17 15:18:44;;;;;;;24.17;16.20;;;;;;;;;;5083669;28;20397;-59
2021/10/17 15:21:48;;;;;;;21.73;13.95;;;;;;;;;;5080754;28;20077;-58
2021/10/17 15:24:28;;;;;;;23.45;15.80;;;;;;;;;;5077218;28;20082;-59
2021/10/17 15:26:54;;;;;;;20.23;16.03;;;;;;;;;;5075202;28;20929;-59
2021/10/17 15:29:28;;;;;;;23.70;17.13;;;;;;;;;;5078405;28;20050;-59
2021/10/17 15:32:15;;;;;;;21.95;16.50;;;;;;;;;;5073522;28;20451;-59
2021/10/17 15:34:49;;;;;;;24.30;17.40;;;;;;;;;;5080197;28;20087;-58
2021/10/17 15:37:30;;;;;;;28.80;18.50;;;;;;;;;;5059189;28;20024;-58
2021/10/17 15:40:09;;;;;;;20.52;16.13;;;;;;;;;;5059261;28;20497;-59
2021/10/17 15:42:57;;;;;;;20.42;14.45;;;;;;;;;;5074657;28;20236;-58
2021/10/17 15:45:37;;;;;;;23.58;15.95;;;;;;;;;;5088594;28;20032;-58
2021/10/17 15:48:10;;;;;;;22.13;16.73;;;;;;;;;;5071556;28;20028;-58
2021/10/17 15:53:59;;;;;;;;;;;;;;;;;;;;;
2021/10/17 15:56:45;;;;;;;23.58;14.90;;;;;;;;;;5063269;28;20043;-59
2021/10/17 15:59:20;;;;;;;22.42;16.63;;;;;;;;;;5083869;28;20020;-59
2021/10/17 16:02:06;;;;;;;21.83;16.60;;;;;;;;;;5055139;28;20033;-59
2021/10/17 16:07:43;;;;;;;20.88;15.50;;;;;;;;;;5063483;28;20033;-58
2021/10/17 16:13:41;;;;;;;21.83;17.48;;;;;;;;;;5062940;28;20028;-57
2021/10/17 16:19:31;;;;;;;24.88;17.25;;;;;;;;;;5039059;28;20032;-59
2021/10/17 16:22:31;;;;;;;23.63;16.85;;;;;;;;;;5082386;28;20025;-59
2021/10/17 16:25:25;;;;;;;28.23;18.48;;;;;;;;;;5070408;28;20024;-59
2021/10/17 16:28:15;;;;;;;25.20;16.50;;;;;;;;;;5051561;28;20040;-59
2021/10/17 16:31:11;;;;;;;23.98;16.42;;;;;;;;;;5054512;28;20481;-58
2021/10/17 16:34:15;;;;;;;;;;;;;;;;;;;;;
2021/10/17 16:37:05;;;;;;;26.30;17.65;;;;;;;;;;5071213;28;20107;-59
2021/10/17 16:39:43;;;;;;;24.30;16.83;;;;;;;;;;5012295;28;20045;-58
2021/10/17 16:42:24;;;;;;;26.23;18.45;;;;;;;;;;5042802;28;20044;-59
2021/10/17 16:45:15;;;;;;;30.67;19.67;;;;;;;;;;5070377;28;20096;-59
2021/10/17 16:48:14;;;;;;;25.65;17.75;;;;;;;;;;5056771;28;20029;-59
2021/10/17 16:50:43;;;;;;;32.08;18.98;;;;;;;;;;5068725;28;20123;-58
2021/10/17 16:53:10;;;;;;;25.85;17.20;;;;;;;;;;5061094;28;20064;-57
2021/10/17 16:55:53;;;;;;;24.52;15.98;;;;;;;;;;5045908;28;20032;-59
2021/10/17 17:01:36;;;;;;;25.85;17.30;;;;;;;;;;5038148;28;20037;-59
2021/10/17 17:04:31;;;;;;;;;;;;;;;;;;;;;
2021/10/17 17:07:04;;;;;;;31.15;18.85;;;;;;;;;;5071920;28;20547;-57
2021/10/17 17:09:52;;;;;;;;;;;;;;;;;;;;;
2021/10/17 17:12:39;;;;;;;32.58;17.95;;;;;;;;;;5083930;28;20414;-59
2021/10/17 17:15:19;;;;;;;29.15;19.08;;;;;;;;;;5075117;28;20434;-59
2021/10/17 17:17:49;;;;;;;28.35;19.52;;;;;;;;;;5087611;28;20070;-59
2021/10/17 17:20:50;;;;;;;;;;;;;;;;;;;;;
2021/10/17 17:23:24;;;;;;;27.70;19.85;;;;;;;;;;5057817;28;20044;-58
2021/10/17 17:25:51;;;;;;;30.15;19.80;;;;;;;;;;5072662;28;20029;-58
2021/10/17 17:28:40;;;;;;;34.03;22.45;;;;;;;;;;5085308;28;20063;-57
2021/10/17 17:31:16;;;;;;;30.55;20.27;;;;;;;;;;5082032;28;20084;-57
2021/10/17 17:33:48;;;;;;;35.45;21.50;;;;;;;;;;5075709;28;20397;-58
2021/10/17 17:36:38;;;;;;;33.90;19.65;;;;;;;;;;5086876;28;20039;-58
2021/10/17 17:39:22;;;;;;;27.60;18.58;;;;;;;;;;5076363;28;20037;-58
2021/10/17 17:42:26;;;;;;;30.23;19.20;;;;;;;;;;5081395;28;20043;-58
2021/10/17 17:45:11;;;;;;;30.33;19.83;;;;;;;;;;5089826;28;20028;-58
2021/10/17 17:48:13;;;;;;;28.52;19.42;;;;;;;;;;5084158;28;20024;-57
2021/10/17 17:50:47;;;;;;;27.02;18.48;;;;;;;;;;5057454;28;20064;-57
2021/10/17 17:53:24;;;;;;;27.40;19.25;;;;;;;;;;5089262;28;20458;-58
2021/10/17 17:55:56;;;;;;;31.30;21.85;;;;;;;;;;5076176;28;20016;-58
2021/10/17 17:58:41;;;;;;;;;;;;;;;;;;;;;
2021/10/17 18:01:20;;;;;;;29.35;20.45;;;;;;;;;;5092694;28;20034;-58
2021/10/17 18:04:04;;;;;;;35.17;21.33;;;;;;;;;;5093383;28;20036;-58
2021/10/17 18:09:47;;;;;;;31.90;20.00;;;;;;;;;;5028000;28;20035;-58
2021/10/17 18:16:03;;;;;;;31.90;19.42;;;;;;;;;;5043651;28;20040;-58
2021/10/17 18:18:39;;;;;;;33.60;21.63;;;;;;;;;;5079537;28;20040;-58
2021/10/17 18:21:59;;;;;;;;;;;;;;;;;;;;;
2021/10/17 18:34:00;;;;;;;35.45;22.05;;;;;;;;;;5063670;28;20036;-58
2021/10/17 18:36:40;;;;;;;30.70;19.77;;;;;;;;;;5089627;28;20032;-58
2021/10/17 18:39:56;;;;;;;37.28;22.17;;;;;;;;;;5060345;28;20032;-58
2021/10/17 18:42:51;;;;;;;29.80;18.52;;;;;;;;;;5081309;28;20056;-57
2021/10/17 18:45:42;;;;;;;29.42;18.42;;;;;;;;;;5046291;28;20178;-58
2021/10/17 18:51:32;;;;;;;33.20;20.20;;;;;;;;;;5078253;28;20320;-58
2021/10/17 18:54:22;;;;;;;31.83;18.70;;;;;;;;;;5061190;28;20033;-58
2021/10/17 18:57:11;;;;;;;31.02;18.83;;;;;;;;;;5091133;28;20033;-58
2021/10/17 19:03:43;;;;;;;24.25;14.75;;;;;;;;;;5011827;28;20041;-58
2021/10/17 19:06:12;;;;;;;26.70;17.55;;;;;;;;;;5027903;28;20029;-57
2021/10/17 19:09:03;;;;;;;;;;;;;;;;;;;;;
2021/10/17 19:17:32;;;;;;;21.70;15.77;;;;;;;;;;4992046;28;20041;-58
2021/10/17 19:20:13;;;;;;;28.80;17.77;;;;;;;;;;5055385;28;20509;-58
2021/10/17 19:22:46;;;;;;;25.52;16.20;;;;;;;;;;5072551;28;20023;-58
2021/10/17 19:28:26;;;;;;;27.92;16.98;;;;;;;;;;5082745;28;20105;-58
2021/10/17 19:31:09;;;;;;;19.55;14.90;;;;;;;;;;5062941;28;20062;-58
2021/10/17 19:33:50;;;;;;;24.10;16.35;;;;;;;;;;5051485;28;20032;-58
2021/10/17 19:36:52;;;;;;;23.63;15.95;;;;;;;;;;5079975;28;20470;-58
2021/10/17 19:42:19;;;;;;;19.25;15.27;;;;;;;;;;5062150;28;20054;-58
2021/10/17 19:44:57;;;;;;;25.67;13.95;;;;;;;;;;5087766;28;20032;-58
2021/10/17 19:47:42;;;;;;;22.58;16.17;;;;;;;;;;5053296;28;20029;-58
2021/10/17 19:50:26;;;;;;;20.30;14.77;;;;;;;;;;5056193;28;20024;-58
2021/10/17 19:59:07;;;;;;;25.40;16.75;;;;;;;;;;5066870;28;20059;-58
2021/10/17 20:01:53;;;;;;;22.48;16.42;;;;;;;;;;5071932;28;20048;-58
2021/10/17 20:04:48;;;;;;;23.92;15.60;;;;;;;;;;5054540;28;20504;-58
2021/10/17 20:07:33;;;;;;;27.80;17.50;;;;;;;;;;5053578;28;20492;-58
2021/10/17 20:10:28;;;;;;;24.35;15.27;;;;;;;;;;5062451;28;20101;-58
2021/10/17 20:12:58;;;;;;;22.85;16.42;;;;;;;;;;5059078;28;20488;-58
2021/10/17 20:15:34;;;;;;;28.25;18.08;;;;;;;;;;5072335;28;20362;-58
2021/10/17 20:18:15;;;;;;;29.27;17.02;;;;;;;;;;5071669;28;20035;-58
2021/10/17 20:20:54;;;;;;;21.65;15.10;;;;;;;;;;5072797;28;20036;-58
2021/10/17 20:26:28;;;;;;;26.80;17.35;;;;;;;;;;5071778;28;20168;-58